sensor_id;sensor_type;location;lat;lon;timestamp;temperature;humidity
18717;DHT22;9487;50.892;6.906;2023-09-07T00:01:34;20.40;1.00
18717;DHT22;9487;50.892;6.906;2023-09-07T00:04:02;20.40;1.00
18717;DHT22;9487;50.892;6.906;2023-09-07T00:06:29;20.40;1.00
18717;DHT22;9487;50.892;6.906;2023-09-07T00:08:56;20.30;1.00
18717;DHT22;9487;50.892;6.906;2023-09-07T00:11:23;20.30;1.00
18717;DHT22;9487;50.892;6.906;2023-09-07T00:13:49;20.30;1.00
18717;DHT22;9487;50.892;6.906;2023-09-07T00:16:18;20.30;1.00
18717;DHT22;9487;50.892;6.906;2023-09-07T00:18:45;20.30;1.00
18717;DHT22;9487;50.892;6.906;2023-09-07T00:21:12;20.30;1.00
18717;DHT22;9487;50.892;6.906;2023-09-07T00:23:39;20.30;1.00
18717;DHT22;9487;50.892;6.906;2023-09-07T00:26:06;20.30;1.00
18717;DHT22;9487;50.892;6.906;2023-09-07T00:28:33;20.20;1.00
18717;DHT22;9487;50.892;6.906;2023-09-07T00:31:00;20.20;1.00
18717;DHT22;9487;50.892;6.906;2023-09-07T00:33:28;20.20;1.00
18717;DHT22;9487;50.892;6.906;2023-09-07T00:35:55;20.20;1.00
18717;DHT22;9487;50.892;6.906;2023-09-07T00:38:22;20.10;1.00
18717;DHT22;9487;50.892;6.906;2023-09-07T00:40:49;20.10;1.00
18717;DHT22;9487;50.892;6.906;2023-09-07T00:43:16;20.10;1.00
18717;DHT22;9487;50.892;6.906;2023-09-07T00:45:43;20.10;1.00
18717;DHT22;9487;50.892;6.906;2023-09-07T00:48:12;20.00;1.00
18717;DHT22;9487;50.892;6.906;2023-09-07T00:50:40;20.10;1.00
18717;DHT22;9487;50.892;6.906;2023-09-07T00:53:08;20.00;1.00
18717;DHT22;9487;50.892;6.906;2023-09-07T00:55:35;20.00;1.00
18717;DHT22;9487;50.892;6.906;2023-09-07T00:58:04;20.00;1.00
18717;DHT22;9487;50.892;6.906;2023-09-07T01:00:31;20.00;1.00
18717;DHT22;9487;50.892;6.906;2023-09-07T01:02:58;19.90;1.00
18717;DHT22;9487;50.892;6.906;2023-09-07T01:05:32;19.90;1.00
18717;DHT22;9487;50.892;6.906;2023-09-07T01:08:07;19.90;1.00
18717;DHT22;9487;50.892;6.906;2023-09-07T01:10:36;19.90;1.00
18717;DHT22;9487;50.892;6.906;2023-09-07T01:13:03;19.80;1.00
18717;DHT22;9487;50.892;6.906;2023-09-07T01:15:30;19.80;1.00
18717;DHT22;9487;50.892;6.906;2023-09-07T01:17:58;19.80;1.00
18717;DHT22;9487;50.892;6.906;2023-09-07T01:20:26;19.80;1.00
18717;DHT22;9487;50.892;6.906;2023-09-07T01:22:54;19.80;1.00
18717;DHT22;9487;50.892;6.906;2023-09-07T01:25:21;19.80;1.00
18717;DHT22;9487;50.892;6.906;2023-09-07T01:27:49;19.80;1.00
18717;DHT22;9487;50.892;6.906;2023-09-07T01:30:17;19.80;1.00
18717;DHT22;9487;50.892;6.906;2023-09-07T01:32:44;19.80;1.00
18717;DHT22;9487;50.892;6.906;2023-09-07T01:35:13;19.70;1.00
18717;DHT22;9487;50.892;6.906;2023-09-07T01:37:42;19.70;1.00
18717;DHT22;9487;50.892;6.906;2023-09-07T01:40:10;19.70;1.00
18717;DHT22;9487;50.892;6.906;2023-09-07T01:42:37;19.60;1.00
18717;DHT22;9487;50.892;6.906;2023-09-07T01:45:05;19.60;1.00
18717;DHT22;9487;50.892;6.906;2023-09-07T01:47:32;19.60;1.00
18717;DHT22;9487;50.892;6.906;2023-09-07T01:49:58;19.60;1.00
18717;DHT22;9487;50.892;6.906;2023-09-07T01:52:25;19.60;1.00
18717;DHT22;9487;50.892;6.906;2023-09-07T01:54:52;19.60;1.00
18717;DHT22;9487;50.892;6.906;2023-09-07T01:57:20;19.60;1.00
18717;DHT22;9487;50.892;6.906;2023-09-07T01:59:47;19.60;1.00
18717;DHT22;9487;50.892;6.906;2023-09-07T02:02:14;19.60;1.00
18717;DHT22;9487;50.892;6.906;2023-09-07T02:04:41;19.60;1.00
18717;DHT22;9487;50.892;6.906;2023-09-07T02:07:11;19.60;1.00
18717;DHT22;9487;50.892;6.906;2023-09-07T02:09:38;19.50;1.00
18717;DHT22;9487;50.892;6.906;2023-09-07T02:12:05;19.50;1.00
18717;DHT22;9487;50.892;6.906;2023-09-07T02:14:34;19.50;1.00
18717;DHT22;9487;50.892;6.906;2023-09-07T02:17:01;19.40;1.00
18717;DHT22;9487;50.892;6.906;2023-09-07T02:19:28;19.40;1.00
18717;DHT22;9487;50.892;6.906;2023-09-07T02:21:55;19.40;1.00
18717;DHT22;9487;50.892;6.906;2023-09-07T02:24:22;19.30;1.00
18717;DHT22;9487;50.892;6.906;2023-09-07T02:26:49;19.30;1.00
18717;DHT22;9487;50.892;6.906;2023-09-07T02:29:16;19.30;1.00
18717;DHT22;9487;50.892;6.906;2023-09-07T02:31:44;19.30;1.00
18717;DHT22;9487;50.892;6.906;2023-09-07T02:34:11;19.30;1.00
18717;DHT22;9487;50.892;6.906;2023-09-07T02:36:37;19.30;1.00
18717;DHT22;9487;50.892;6.906;2023-09-07T02:39:04;19.30;1.00
18717;DHT22;9487;50.892;6.906;2023-09-07T02:41:34;19.30;1.00
18717;DHT22;9487;50.892;6.906;2023-09-07T02:44:01;19.30;1.00
18717;DHT22;9487;50.892;6.906;2023-09-07T02:46:28;19.20;1.00
18717;DHT22;9487;50.892;6.906;2023-09-07T02:48:56;19.20;1.00
18717;DHT22;9487;50.892;6.906;2023-09-07T02:51:23;19.10;1.00
18717;DHT22;9487;50.892;6.906;2023-09-07T02:53:50;19.20;1.00
18717;DHT22;9487;50.892;6.906;2023-09-07T02:56:17;19.20;1.00
18717;DHT22;9487;50.892;6.906;2023-09-07T02:58:44;19.20;1.00
18717;DHT22;9487;50.892;6.906;2023-09-07T03:01:11;19.20;1.00
18717;DHT22;9487;50.892;6.906;2023-09-07T03:03:38;19.10;1.00
18717;DHT22;9487;50.892;6.906;2023-09-07T03:06:10;19.10;1.00
18717;DHT22;9487;50.892;6.906;2023-09-07T03:08:38;19.10;1.00
18717;DHT22;9487;50.892;6.906;2023-09-07T03:11:06;19.10;1.00
18717;DHT22;9487;50.892;6.906;2023-09-07T03:13:33;19.10;1.00
18717;DHT22;9487;50.892;6.906;2023-09-07T03:16:02;19.10;1.00
18717;DHT22;9487;50.892;6.906;2023-09-07T03:18:29;19.10;1.00
18717;DHT22;9487;50.892;6.906;2023-09-07T03:20:58;19.10;1.00
18717;DHT22;9487;50.892;6.906;2023-09-07T03:23:27;19.10;1.00
18717;DHT22;9487;50.892;6.906;2023-09-07T03:25:53;19.00;1.00
18717;DHT22;9487;50.892;6.906;2023-09-07T03:28:20;19.00;1.00
18717;DHT22;9487;50.892;6.906;2023-09-07T03:30:47;19.00;1.00
18717;DHT22;9487;50.892;6.906;2023-09-07T03:33:14;19.00;1.00
18717;DHT22;9487;50.892;6.906;2023-09-07T03:35:41;19.00;1.00
18717;DHT22;9487;50.892;6.906;2023-09-07T03:38:08;18.90;1.00
18717;DHT22;9487;50.892;6.906;2023-09-07T03:40:36;18.90;1.00
18717;DHT22;9487;50.892;6.906;2023-09-07T03:43:03;18.90;1.00
18717;DHT22;9487;50.892;6.906;2023-09-07T03:45:30;18.90;1.00
18717;DHT22;9487;50.892;6.906;2023-09-07T03:47:57;18.80;1.00
18717;DHT22;9487;50.892;6.906;2023-09-07T03:50:24;18.80;1.00
18717;DHT22;9487;50.892;6.906;2023-09-07T03:52:51;18.80;1.00
18717;DHT22;9487;50.892;6.906;2023-09-07T03:55:18;18.80;1.00
18717;DHT22;9487;50.892;6.906;2023-09-07T03:57:46;18.70;1.00
18717;DHT22;9487;50.892;6.906;2023-09-07T04:00:14;18.70;1.00
18717;DHT22;9487;50.892;6.906;2023-09-07T04:02:41;18.70;1.00
18717;DHT22;9487;50.892;6.906;2023-09-07T04:05:09;18.70;1.00
18717;DHT22;9487;50.892;6.906;2023-09-07T04:07:37;18.70;1.00
18717;DHT22;9487;50.892;6.906;2023-09-07T04:10:05;18.70;1.00
18717;DHT22;9487;50.892;6.906;2023-09-07T04:12:31;18.60;29.00
18717;DHT22;9487;50.892;6.906;2023-09-07T04:15:01;18.60;93.20
18717;DHT22;9487;50.892;6.906;2023-09-07T04:17:28;18.50;99.90
18717;DHT22;9487;50.892;6.906;2023-09-07T04:19:55;18.50;99.90
18717;DHT22;9487;50.892;6.906;2023-09-07T04:22:22;18.50;99.90
18717;DHT22;9487;50.892;6.906;2023-09-07T04:24:48;18.40;99.90
18717;DHT22;9487;50.892;6.906;2023-09-07T04:27:15;18.50;99.90
18717;DHT22;9487;50.892;6.906;2023-09-07T04:29:42;18.40;99.90
18717;DHT22;9487;50.892;6.906;2023-09-07T04:32:11;18.40;99.90
18717;DHT22;9487;50.892;6.906;2023-09-07T04:34:37;18.40;99.90
18717;DHT22;9487;50.892;6.906;2023-09-07T04:37:04;18.40;99.90
18717;DHT22;9487;50.892;6.906;2023-09-07T04:39:31;18.40;99.90
18717;DHT22;9487;50.892;6.906;2023-09-07T04:41:58;18.40;99.90
18717;DHT22;9487;50.892;6.906;2023-09-07T04:44:26;18.50;99.90
18717;DHT22;9487;50.892;6.906;2023-09-07T04:46:54;18.40;74.50
18717;DHT22;9487;50.892;6.906;2023-09-07T04:49:23;18.40;99.90
18717;DHT22;9487;50.892;6.906;2023-09-07T04:51:52;18.40;79.80
18717;DHT22;9487;50.892;6.906;2023-09-07T04:54:20;18.30;99.90
18717;DHT22;9487;50.892;6.906;2023-09-07T04:56:47;18.30;99.90
18717;DHT22;9487;50.892;6.906;2023-09-07T04:59:14;18.30;99.90
18717;DHT22;9487;50.892;6.906;2023-09-07T05:01:41;18.30;99.90
18717;DHT22;9487;50.892;6.906;2023-09-07T05:04:08;18.30;99.90
18717;DHT22;9487;50.892;6.906;2023-09-07T05:06:36;18.30;99.90
18717;DHT22;9487;50.892;6.906;2023-09-07T05:09:04;18.30;99.90
18717;DHT22;9487;50.892;6.906;2023-09-07T05:11:31;18.40;99.90
18717;DHT22;9487;50.892;6.906;2023-09-07T05:14:00;18.40;78.00
18717;DHT22;9487;50.892;6.906;2023-09-07T05:16:27;18.40;99.90
18717;DHT22;9487;50.892;6.906;2023-09-07T05:18:54;18.40;99.90
18717;DHT22;9487;50.892;6.906;2023-09-07T05:21:21;18.40;99.90
18717;DHT22;9487;50.892;6.906;2023-09-07T05:23:49;18.50;99.90
18717;DHT22;9487;50.892;6.906;2023-09-07T05:26:21;18.60;1.00
18717;DHT22;9487;50.892;6.906;2023-09-07T05:28:49;18.60;99.90
18717;DHT22;9487;50.892;6.906;2023-09-07T05:31:16;18.70;37.90
18717;DHT22;9487;50.892;6.906;2023-09-07T05:33:43;18.80;1.00
18717;DHT22;9487;50.892;6.906;2023-09-07T05:36:10;18.90;1.00
18717;DHT22;9487;50.892;6.906;2023-09-07T05:38:37;18.90;1.00
18717;DHT22;9487;50.892;6.906;2023-09-07T05:41:05;19.00;1.00
18717;DHT22;9487;50.892;6.906;2023-09-07T05:43:33;19.10;1.00
18717;DHT22;9487;50.892;6.906;2023-09-07T05:46:01;19.10;1.00
18717;DHT22;9487;50.892;6.906;2023-09-07T05:48:28;19.30;1.00
18717;DHT22;9487;50.892;6.906;2023-09-07T05:50:55;19.30;1.00
18717;DHT22;9487;50.892;6.906;2023-09-07T05:53:22;19.40;99.90
18717;DHT22;9487;50.892;6.906;2023-09-07T05:55:50;19.50;99.90
18717;DHT22;9487;50.892;6.906;2023-09-07T05:58:18;19.60;99.90
18717;DHT22;9487;50.892;6.906;2023-09-07T06:00:45;19.60;99.90
18717;DHT22;9487;50.892;6.906;2023-09-07T06:03:12;19.70;62.40
18717;DHT22;9487;50.892;6.906;2023-09-07T06:05:39;19.80;18.10
18717;DHT22;9487;50.892;6.906;2023-09-07T06:08:06;19.90;1.00
18717;DHT22;9487;50.892;6.906;2023-09-07T06:10:33;20.00;1.00
18717;DHT22;9487;50.892;6.906;2023-09-07T06:13:00;20.10;1.00
18717;DHT22;9487;50.892;6.906;2023-09-07T06:15:29;20.10;1.00
18717;DHT22;9487;50.892;6.906;2023-09-07T06:17:56;20.10;1.00
18717;DHT22;9487;50.892;6.906;2023-09-07T06:20:23;20.20;1.00
18717;DHT22;9487;50.892;6.906;2023-09-07T06:22:50;20.20;1.00
18717;DHT22;9487;50.892;6.906;2023-09-07T06:25:17;20.30;99.90
18717;DHT22;9487;50.892;6.906;2023-09-07T06:27:44;20.40;16.80
18717;DHT22;9487;50.892;6.906;2023-09-07T06:30:11;20.40;18.50
18717;DHT22;9487;50.892;6.906;2023-09-07T06:32:40;20.60;1.00
18717;DHT22;9487;50.892;6.906;2023-09-07T06:35:08;20.60;1.00
18717;DHT22;9487;50.892;6.906;2023-09-07T06:37:35;20.70;1.00
18717;DHT22;9487;50.892;6.906;2023-09-07T06:40:07;20.80;1.00
18717;DHT22;9487;50.892;6.906;2023-09-07T06:42:34;20.90;99.90
18717;DHT22;9487;50.892;6.906;2023-09-07T06:45:00;21.00;1.00
18717;DHT22;9487;50.892;6.906;2023-09-07T06:47:28;21.10;99.90
18717;DHT22;9487;50.892;6.906;2023-09-07T06:49:57;21.30;99.90
18717;DHT22;9487;50.892;6.906;2023-09-07T06:52:24;21.40;99.90
18717;DHT22;9487;50.892;6.906;2023-09-07T06:54:52;21.50;1.00
18717;DHT22;9487;50.892;6.906;2023-09-07T06:57:19;21.70;99.90
18717;DHT22;9487;50.892;6.906;2023-09-07T06:59:46;21.80;99.90
18717;DHT22;9487;50.892;6.906;2023-09-07T07:02:14;21.80;99.90
18717;DHT22;9487;50.892;6.906;2023-09-07T07:04:41;21.70;1.00
18717;DHT22;9487;50.892;6.906;2023-09-07T07:07:13;21.60;1.00
18717;DHT22;9487;50.892;6.906;2023-09-07T07:09:40;21.50;1.00
18717;DHT22;9487;50.892;6.906;2023-09-07T07:12:07;21.60;77.30
18717;DHT22;9487;50.892;6.906;2023-09-07T07:14:33;21.70;1.00
18717;DHT22;9487;50.892;6.906;2023-09-07T07:17:00;21.90;1.00
18717;DHT22;9487;50.892;6.906;2023-09-07T07:19:30;22.00;1.00
18717;DHT22;9487;50.892;6.906;2023-09-07T07:21:57;22.20;99.90
18717;DHT22;9487;50.892;6.906;2023-09-07T07:24:25;22.40;99.90
18717;DHT22;9487;50.892;6.906;2023-09-07T07:26:52;22.50;1.00
18717;DHT22;9487;50.892;6.906;2023-09-07T07:29:18;22.50;1.00
18717;DHT22;9487;50.892;6.906;2023-09-07T07:31:45;22.50;1.00
18717;DHT22;9487;50.892;6.906;2023-09-07T07:34:12;22.60;1.00
18717;DHT22;9487;50.892;6.906;2023-09-07T07:36:39;22.90;1.00
18717;DHT22;9487;50.892;6.906;2023-09-07T07:39:06;23.00;1.00
18717;DHT22;9487;50.892;6.906;2023-09-07T07:41:35;23.20;99.90
18717;DHT22;9487;50.892;6.906;2023-09-07T07:44:03;23.20;99.90
18717;DHT22;9487;50.892;6.906;2023-09-07T07:46:30;23.00;1.00
18717;DHT22;9487;50.892;6.906;2023-09-07T07:48:57;23.00;99.90
18717;DHT22;9487;50.892;6.906;2023-09-07T07:51:24;23.30;1.00
18717;DHT22;9487;50.892;6.906;2023-09-07T07:53:53;23.40;1.00
18717;DHT22;9487;50.892;6.906;2023-09-07T07:56:21;23.60;99.90
18717;DHT22;9487;50.892;6.906;2023-09-07T07:58:49;23.70;99.90
18717;DHT22;9487;50.892;6.906;2023-09-07T08:01:17;23.80;99.90
18717;DHT22;9487;50.892;6.906;2023-09-07T08:03:45;23.90;99.90
18717;DHT22;9487;50.892;6.906;2023-09-07T08:06:12;23.90;1.00
18717;DHT22;9487;50.892;6.906;2023-09-07T08:08:39;24.00;1.00
18717;DHT22;9487;50.892;6.906;2023-09-07T08:11:06;24.20;1.00
18717;DHT22;9487;50.892;6.906;2023-09-07T08:13:34;24.30;1.00
18717;DHT22;9487;50.892;6.906;2023-09-07T08:16:03;24.30;1.00
18717;DHT22;9487;50.892;6.906;2023-09-07T08:18:32;24.30;1.00
18717;DHT22;9487;50.892;6.906;2023-09-07T08:20:59;24.20;1.00
18717;DHT22;9487;50.892;6.906;2023-09-07T08:23:26;24.10;1.00
18717;DHT22;9487;50.892;6.906;2023-09-07T08:25:53;24.10;1.00
18717;DHT22;9487;50.892;6.906;2023-09-07T08:28:20;24.10;1.00
18717;DHT22;9487;50.892;6.906;2023-09-07T08:30:49;24.10;1.00
18717;DHT22;9487;50.892;6.906;2023-09-07T08:33:20;24.20;1.00
18717;DHT22;9487;50.892;6.906;2023-09-07T08:35:54;24.30;1.00
18717;DHT22;9487;50.892;6.906;2023-09-07T08:38:21;24.30;1.00
18717;DHT22;9487;50.892;6.906;2023-09-07T08:40:52;24.10;1.00
18717;DHT22;9487;50.892;6.906;2023-09-07T08:43:20;24.20;1.00
18717;DHT22;9487;50.892;6.906;2023-09-07T08:45:51;24.30;1.00
18717;DHT22;9487;50.892;6.906;2023-09-07T08:48:21;24.40;1.00
18717;DHT22;9487;50.892;6.906;2023-09-07T08:50:49;24.60;1.00
18717;DHT22;9487;50.892;6.906;2023-09-07T08:53:18;24.70;1.00
18717;DHT22;9487;50.892;6.906;2023-09-07T08:55:45;24.80;1.00
18717;DHT22;9487;50.892;6.906;2023-09-07T08:58:12;25.00;1.00
18717;DHT22;9487;50.892;6.906;2023-09-07T09:00:42;25.10;99.90
18717;DHT22;9487;50.892;6.906;2023-09-07T09:03:09;25.10;99.90
18717;DHT22;9487;50.892;6.906;2023-09-07T09:05:39;25.20;99.90
18717;DHT22;9487;50.892;6.906;2023-09-07T09:08:06;25.30;99.90
18717;DHT22;9487;50.892;6.906;2023-09-07T09:10:33;25.40;99.90
18717;DHT22;9487;50.892;6.906;2023-09-07T09:13:01;25.40;99.90
18717;DHT22;9487;50.892;6.906;2023-09-07T09:15:30;25.50;99.90
18717;DHT22;9487;50.892;6.906;2023-09-07T09:17:56;25.50;99.90
18717;DHT22;9487;50.892;6.906;2023-09-07T09:20:24;25.60;99.90
18717;DHT22;9487;50.892;6.906;2023-09-07T09:22:54;25.50;99.90
18717;DHT22;9487;50.892;6.906;2023-09-07T09:25:22;25.40;99.90
18717;DHT22;9487;50.892;6.906;2023-09-07T09:27:49;25.40;99.90
18717;DHT22;9487;50.892;6.906;2023-09-07T09:30:16;25.30;99.90
18717;DHT22;9487;50.892;6.906;2023-09-07T09:32:43;25.50;99.90
18717;DHT22;9487;50.892;6.906;2023-09-07T09:35:11;25.70;99.90
18717;DHT22;9487;50.892;6.906;2023-09-07T09:37:44;25.90;99.90
18717;DHT22;9487;50.892;6.906;2023-09-07T09:40:14;26.00;99.90
18717;DHT22;9487;50.892;6.906;2023-09-07T09:42:42;26.00;99.90
18717;DHT22;9487;50.892;6.906;2023-09-07T09:45:10;26.00;99.90
18717;DHT22;9487;50.892;6.906;2023-09-07T09:47:39;26.20;99.90
18717;DHT22;9487;50.892;6.906;2023-09-07T09:50:09;26.30;1.00
18717;DHT22;9487;50.892;6.906;2023-09-07T09:52:37;26.30;33.60
18717;DHT22;9487;50.892;6.906;2023-09-07T09:55:05;26.40;20.50
18717;DHT22;9487;50.892;6.906;2023-09-07T09:57:35;26.40;86.50
18717;DHT22;9487;50.892;6.906;2023-09-07T10:00:03;26.50;99.90
18717;DHT22;9487;50.892;6.906;2023-09-07T10:02:47;26.50;99.90
18717;DHT22;9487;50.892;6.906;2023-09-07T10:05:15;26.60;99.90
18717;DHT22;9487;50.892;6.906;2023-09-07T10:07:44;26.60;99.90
18717;DHT22;9487;50.892;6.906;2023-09-07T10:10:13;26.80;23.60
18717;DHT22;9487;50.892;6.906;2023-09-07T10:12:42;26.80;1.00
18717;DHT22;9487;50.892;6.906;2023-09-07T10:15:23;26.90;1.00
18717;DHT22;9487;50.892;6.906;2023-09-07T10:17:50;27.00;1.00
18717;DHT22;9487;50.892;6.906;2023-09-07T10:20:28;27.10;1.00
18717;DHT22;9487;50.892;6.906;2023-09-07T10:23:02;27.20;1.00
18717;DHT22;9487;50.892;6.906;2023-09-07T10:25:30;27.20;1.00
18717;DHT22;9487;50.892;6.906;2023-09-07T10:27:59;27.30;1.00
18717;DHT22;9487;50.892;6.906;2023-09-07T10:30:27;27.30;1.00
18717;DHT22;9487;50.892;6.906;2023-09-07T10:32:55;27.40;1.00
18717;DHT22;9487;50.892;6.906;2023-09-07T10:35:23;27.50;1.00
18717;DHT22;9487;50.892;6.906;2023-09-07T10:37:51;27.60;1.00
18717;DHT22;9487;50.892;6.906;2023-09-07T10:40:22;27.80;1.00
18717;DHT22;9487;50.892;6.906;2023-09-07T10:42:48;27.90;1.00
18717;DHT22;9487;50.892;6.906;2023-09-07T10:45:17;28.00;1.00
18717;DHT22;9487;50.892;6.906;2023-09-07T10:47:44;28.10;1.00
18717;DHT22;9487;50.892;6.906;2023-09-07T10:50:12;28.20;1.00
18717;DHT22;9487;50.892;6.906;2023-09-07T10:52:40;28.20;1.00
18717;DHT22;9487;50.892;6.906;2023-09-07T10:55:08;28.20;1.00
18717;DHT22;9487;50.892;6.906;2023-09-07T10:57:42;28.30;1.00
18717;DHT22;9487;50.892;6.906;2023-09-07T11:00:11;28.40;1.00
18717;DHT22;9487;50.892;6.906;2023-09-07T11:02:42;28.40;1.00
18717;DHT22;9487;50.892;6.906;2023-09-07T11:05:09;28.50;1.00
18717;DHT22;9487;50.892;6.906;2023-09-07T11:07:36;28.50;1.00
18717;DHT22;9487;50.892;6.906;2023-09-07T11:10:06;28.60;99.90
18717;DHT22;9487;50.892;6.906;2023-09-07T11:12:37;28.70;99.90
18717;DHT22;9487;50.892;6.906;2023-09-07T11:15:05;28.80;1.00
18717;DHT22;9487;50.892;6.906;2023-09-07T11:17:36;28.90;99.90
18717;DHT22;9487;50.892;6.906;2023-09-07T11:20:07;28.80;99.90
18717;DHT22;9487;50.892;6.906;2023-09-07T11:22:36;28.80;99.90
18717;DHT22;9487;50.892;6.906;2023-09-07T11:25:05;28.80;99.90
18717;DHT22;9487;50.892;6.906;2023-09-07T11:27:32;28.80;99.90
18717;DHT22;9487;50.892;6.906;2023-09-07T11:29:59;28.90;99.90
18717;DHT22;9487;50.892;6.906;2023-09-07T11:32:33;28.90;99.90
18717;DHT22;9487;50.892;6.906;2023-09-07T11:35:00;29.00;99.90
18717;DHT22;9487;50.892;6.906;2023-09-07T11:37:29;29.10;99.90
18717;DHT22;9487;50.892;6.906;2023-09-07T11:39:55;29.00;99.90
18717;DHT22;9487;50.892;6.906;2023-09-07T11:42:22;29.10;99.90
18717;DHT22;9487;50.892;6.906;2023-09-07T11:44:49;29.10;99.90
18717;DHT22;9487;50.892;6.906;2023-09-07T11:47:16;29.10;99.90
18717;DHT22;9487;50.892;6.906;2023-09-07T11:49:43;29.20;99.90
18717;DHT22;9487;50.892;6.906;2023-09-07T11:52:10;29.30;99.90
18717;DHT22;9487;50.892;6.906;2023-09-07T11:54:38;29.30;99.90
18717;DHT22;9487;50.892;6.906;2023-09-07T11:57:05;29.40;72.40
18717;DHT22;9487;50.892;6.906;2023-09-07T11:59:32;29.50;12.50
18717;DHT22;9487;50.892;6.906;2023-09-07T12:01:59;29.60;25.70
18717;DHT22;9487;50.892;6.906;2023-09-07T12:04:26;29.60;1.00
18717;DHT22;9487;50.892;6.906;2023-09-07T12:06:53;29.60;1.00
18717;DHT22;9487;50.892;6.906;2023-09-07T12:09:20;29.60;1.00
18717;DHT22;9487;50.892;6.906;2023-09-07T12:11:49;29.70;1.00
18717;DHT22;9487;50.892;6.906;2023-09-07T12:14:16;29.70;1.00
18717;DHT22;9487;50.892;6.906;2023-09-07T12:16:43;29.50;1.00
18717;DHT22;9487;50.892;6.906;2023-09-07T12:19:09;29.60;1.00
18717;DHT22;9487;50.892;6.906;2023-09-07T12:21:36;29.60;1.00
18717;DHT22;9487;50.892;6.906;2023-09-07T12:24:05;29.60;1.00
18717;DHT22;9487;50.892;6.906;2023-09-07T12:26:32;29.70;1.00
18717;DHT22;9487;50.892;6.906;2023-09-07T12:29:00;29.80;1.00
18717;DHT22;9487;50.892;6.906;2023-09-07T12:31:27;29.90;1.00
18717;DHT22;9487;50.892;6.906;2023-09-07T12:33:54;29.80;1.00
18717;DHT22;9487;50.892;6.906;2023-09-07T12:36:21;29.70;1.00
18717;DHT22;9487;50.892;6.906;2023-09-07T12:38:48;29.70;1.00
18717;DHT22;9487;50.892;6.906;2023-09-07T12:41:15;29.70;1.00
18717;DHT22;9487;50.892;6.906;2023-09-07T12:43:42;29.80;1.00
18717;DHT22;9487;50.892;6.906;2023-09-07T12:46:10;29.90;1.00
18717;DHT22;9487;50.892;6.906;2023-09-07T12:48:38;29.90;1.00
18717;DHT22;9487;50.892;6.906;2023-09-07T12:51:04;30.00;1.00
18717;DHT22;9487;50.892;6.906;2023-09-07T12:53:31;30.00;1.00
18717;DHT22;9487;50.892;6.906;2023-09-07T12:55:58;30.00;1.00
18717;DHT22;9487;50.892;6.906;2023-09-07T12:58:26;30.00;1.00
18717;DHT22;9487;50.892;6.906;2023-09-07T13:00:55;30.10;1.00
18717;DHT22;9487;50.892;6.906;2023-09-07T13:03:25;30.10;1.00
18717;DHT22;9487;50.892;6.906;2023-09-07T13:05:51;30.10;1.00
18717;DHT22;9487;50.892;6.906;2023-09-07T13:08:18;30.10;1.00
18717;DHT22;9487;50.892;6.906;2023-09-07T13:10:45;29.90;1.00
18717;DHT22;9487;50.892;6.906;2023-09-07T13:13:12;30.00;1.00
18717;DHT22;9487;50.892;6.906;2023-09-07T13:15:39;30.10;1.00
18717;DHT22;9487;50.892;6.906;2023-09-07T13:18:06;30.10;1.00
18717;DHT22;9487;50.892;6.906;2023-09-07T13:20:35;30.10;1.00
18717;DHT22;9487;50.892;6.906;2023-09-07T13:23:02;30.20;1.00
18717;DHT22;9487;50.892;6.906;2023-09-07T13:25:31;30.30;1.00
18717;DHT22;9487;50.892;6.906;2023-09-07T13:27:58;30.30;1.00
18717;DHT22;9487;50.892;6.906;2023-09-07T13:30:25;30.30;1.00
18717;DHT22;9487;50.892;6.906;2023-09-07T13:32:52;30.40;1.00
18717;DHT22;9487;50.892;6.906;2023-09-07T13:35:19;30.40;1.00
18717;DHT22;9487;50.892;6.906;2023-09-07T13:37:47;30.40;1.00
18717;DHT22;9487;50.892;6.906;2023-09-07T13:40:14;30.50;1.00
18717;DHT22;9487;50.892;6.906;2023-09-07T13:42:41;30.60;1.00
18717;DHT22;9487;50.892;6.906;2023-09-07T13:45:09;30.60;1.00
18717;DHT22;9487;50.892;6.906;2023-09-07T13:47:36;30.50;1.00
18717;DHT22;9487;50.892;6.906;2023-09-07T13:50:04;30.50;1.00
18717;DHT22;9487;50.892;6.906;2023-09-07T13:52:31;30.50;1.00
18717;DHT22;9487;50.892;6.906;2023-09-07T13:54:59;30.60;1.00
18717;DHT22;9487;50.892;6.906;2023-09-07T13:57:26;30.70;1.00
18717;DHT22;9487;50.892;6.906;2023-09-07T13:59:53;30.60;1.00
18717;DHT22;9487;50.892;6.906;2023-09-07T14:02:20;30.70;1.00
18717;DHT22;9487;50.892;6.906;2023-09-07T14:04:47;30.60;1.00
18717;DHT22;9487;50.892;6.906;2023-09-07T14:07:15;30.60;1.00
18717;DHT22;9487;50.892;6.906;2023-09-07T14:09:42;30.60;1.00
18717;DHT22;9487;50.892;6.906;2023-09-07T14:12:10;30.60;1.00
18717;DHT22;9487;50.892;6.906;2023-09-07T14:14:38;30.70;1.00
18717;DHT22;9487;50.892;6.906;2023-09-07T14:17:05;30.80;1.00
18717;DHT22;9487;50.892;6.906;2023-09-07T14:19:32;30.90;1.00
18717;DHT22;9487;50.892;6.906;2023-09-07T14:21:58;30.90;1.00
18717;DHT22;9487;50.892;6.906;2023-09-07T14:24:25;31.00;1.00
18717;DHT22;9487;50.892;6.906;2023-09-07T14:26:52;31.20;1.00
18717;DHT22;9487;50.892;6.906;2023-09-07T14:29:21;31.30;1.00
18717;DHT22;9487;50.892;6.906;2023-09-07T14:31:48;31.40;99.90
18717;DHT22;9487;50.892;6.906;2023-09-07T14:34:15;31.50;99.90
18717;DHT22;9487;50.892;6.906;2023-09-07T14:36:42;31.50;99.90
18717;DHT22;9487;50.892;6.906;2023-09-07T14:39:09;31.50;99.90
18717;DHT22;9487;50.892;6.906;2023-09-07T14:41:36;31.50;99.90
18717;DHT22;9487;50.892;6.906;2023-09-07T14:44:03;31.70;99.90
18717;DHT22;9487;50.892;6.906;2023-09-07T14:46:31;31.80;99.90
18717;DHT22;9487;50.892;6.906;2023-09-07T14:48:58;31.90;99.90
18717;DHT22;9487;50.892;6.906;2023-09-07T14:51:27;32.00;99.90
18717;DHT22;9487;50.892;6.906;2023-09-07T14:53:54;32.00;99.90
18717;DHT22;9487;50.892;6.906;2023-09-07T14:56:20;32.00;99.90
18717;DHT22;9487;50.892;6.906;2023-09-07T14:58:47;32.10;99.90
18717;DHT22;9487;50.892;6.906;2023-09-07T15:01:14;32.20;99.90
18717;DHT22;9487;50.892;6.906;2023-09-07T15:03:43;32.20;99.90
18717;DHT22;9487;50.892;6.906;2023-09-07T15:06:10;32.10;99.90
18717;DHT22;9487;50.892;6.906;2023-09-07T15:08:38;32.00;99.90
18717;DHT22;9487;50.892;6.906;2023-09-07T15:11:04;32.00;99.90
18717;DHT22;9487;50.892;6.906;2023-09-07T15:13:31;32.10;99.90
18717;DHT22;9487;50.892;6.906;2023-09-07T15:15:58;32.20;99.90
18717;DHT22;9487;50.892;6.906;2023-09-07T15:18:25;32.20;99.90
18717;DHT22;9487;50.892;6.906;2023-09-07T15:20:54;32.30;99.90
18717;DHT22;9487;50.892;6.906;2023-09-07T15:23:22;32.40;99.90
18717;DHT22;9487;50.892;6.906;2023-09-07T15:25:49;32.50;99.90
18717;DHT22;9487;50.892;6.906;2023-09-07T15:28:17;32.50;99.90
18717;DHT22;9487;50.892;6.906;2023-09-07T15:30:45;32.50;99.90
18717;DHT22;9487;50.892;6.906;2023-09-07T15:33:12;32.70;99.90
18717;DHT22;9487;50.892;6.906;2023-09-07T15:35:38;32.70;99.90
18717;DHT22;9487;50.892;6.906;2023-09-07T15:38:07;32.80;99.90
18717;DHT22;9487;50.892;6.906;2023-09-07T15:40:33;32.80;99.90
18717;DHT22;9487;50.892;6.906;2023-09-07T15:43:01;32.70;99.90
18717;DHT22;9487;50.892;6.906;2023-09-07T15:45:28;32.70;99.90
18717;DHT22;9487;50.892;6.906;2023-09-07T15:47:55;32.60;99.90
18717;DHT22;9487;50.892;6.906;2023-09-07T15:50:22;32.60;99.90
18717;DHT22;9487;50.892;6.906;2023-09-07T15:52:49;32.70;99.90
18717;DHT22;9487;50.892;6.906;2023-09-07T15:55:18;32.90;99.90
18717;DHT22;9487;50.892;6.906;2023-09-07T15:57:45;32.90;99.90